createdAt,value
2019-06-10T00:00:57.202Z,19.19
2019-06-10T00:03:31.735Z,19.18
2019-06-10T00:06:04.117Z,19.27
2019-06-10T00:08:35.528Z,19.27
2019-06-10T00:11:07.783Z,19.32
2019-06-10T00:13:38.771Z,19.31
2019-06-10T00:16:11.573Z,19.35
2019-06-10T00:18:45.766Z,19.35
2019-06-10T00:21:14.981Z,19.35
2019-06-10T00:23:45.732Z,19.38
2019-06-10T00:26:16.389Z,19.39
2019-06-10T00:28:47.096Z,19.40
2019-06-10T00:31:17.886Z,19.46
2019-06-10T00:33:48.528Z,19.45
2019-06-10T00:36:21.391Z,19.50
2019-06-10T00:38:51.926Z,19.52
2019-06-10T00:41:22.662Z,19.49
2019-06-10T00:43:53.304Z,19.49
2019-06-10T00:46:23.970Z,19.50
2019-06-10T00:48:54.616Z,19.49
2019-06-10T00:51:25.331Z,19.46
2019-06-10T00:53:55.977Z,19.44
2019-06-10T00:56:26.634Z,19.42
2019-06-10T00:58:57.179Z,19.44
2019-06-10T01:01:28.070Z,19.41
2019-06-10T01:04:01.377Z,19.38
2019-06-10T01:06:31.943Z,19.36
2019-06-10T01:09:02.690Z,19.34
2019-06-10T01:11:34.498Z,19.29
2019-06-10T01:14:05.365Z,19.30
2019-06-10T01:16:36.070Z,19.32
2019-06-10T01:19:07.761Z,19.31
2019-06-10T01:21:38.481Z,19.27
2019-06-10T01:24:11.631Z,19.26
2019-06-10T01:26:41.406Z,19.24
2019-06-10T01:29:13.945Z,19.21
2019-06-10T01:31:44.589Z,19.21
2019-06-10T01:34:15.275Z,19.20
2019-06-10T01:36:45.911Z,19.17
2019-06-10T01:39:17.996Z,19.19
2019-06-10T01:41:51.177Z,19.20
2019-06-10T01:44:22.336Z,19.23
2019-06-10T01:46:53.259Z,19.20
2019-06-10T01:49:23.954Z,19.20
2019-06-10T01:51:54.685Z,19.21
2019-06-10T01:54:25.348Z,19.20
2019-06-10T01:56:56.080Z,19.17
2019-06-10T01:59:26.809Z,19.21
2019-06-10T02:02:05.698Z,19.23
2019-06-10T02:04:36.484Z,19.21
2019-06-10T02:07:08.615Z,19.24
2019-06-10T02:09:41.086Z,19.24
2019-06-10T02:12:15.882Z,19.25
2019-06-10T02:14:44.886Z,19.25
2019-06-10T02:17:16.340Z,19.25
2019-06-10T02:19:48.087Z,19.26
2019-06-10T02:22:20.559Z,19.23
2019-06-10T02:24:51.105Z,19.24
2019-06-10T02:27:23.199Z,19.22
2019-06-10T02:29:54.386Z,19.23
2019-06-10T02:32:33.002Z,18.75
2019-06-10T02:35:08.966Z,18.33
2019-06-10T02:37:36.932Z,18.13
2019-06-10T02:40:05.382Z,18.02
2019-06-10T02:42:37.769Z,17.97
2019-06-10T02:45:13.781Z,17.96
2019-06-10T02:47:44.281Z,18.02
2019-06-10T02:50:19.814Z,18.18
2019-06-10T02:52:47.623Z,18.24
2019-06-10T02:55:20.307Z,18.28
2019-06-10T02:57:53.244Z,18.37
2019-06-10T03:00:38.532Z,18.42
2019-06-10T03:02:56.370Z,18.50
2019-06-10T03:05:35.206Z,18.58
2019-06-10T03:07:59.502Z,18.66
2019-06-10T03:10:33.963Z,18.74
2019-06-10T03:13:03.029Z,18.75
2019-06-10T03:15:35.449Z,18.83
2019-06-10T03:18:06.253Z,18.88
2019-06-10T03:20:37.147Z,18.96
2019-06-10T03:23:07.795Z,18.99
2019-06-10T03:25:38.516Z,19.07
2019-06-10T03:28:09.165Z,19.19
2019-06-10T03:30:49.582Z,19.24
2019-06-10T03:33:13.756Z,19.28
2019-06-10T03:35:44.568Z,19.32
2019-06-10T03:38:16.177Z,19.33
2019-06-10T03:40:46.998Z,19.31
2019-06-10T03:43:20.786Z,19.30
2019-06-10T03:45:53.120Z,19.28
2019-06-10T03:48:26.767Z,19.30
2019-06-10T03:50:57.397Z,19.23
2019-06-10T03:53:28.550Z,19.25
2019-06-10T03:56:02.067Z,19.32
2019-06-10T03:58:34.907Z,19.37
2019-06-10T04:01:05.845Z,19.41
2019-06-10T04:03:36.484Z,19.44
2019-06-10T04:06:07.411Z,19.45
2019-06-10T04:08:38.041Z,19.66
2019-06-10T04:11:08.911Z,19.69
2019-06-10T04:13:39.768Z,19.83
2019-06-10T04:16:12.779Z,19.72
2019-06-10T04:18:43.547Z,20.00
2019-06-10T04:21:14.390Z,20.11
2019-06-10T04:23:45.200Z,20.12
2019-06-10T04:26:15.866Z,20.20
2019-06-10T04:28:46.611Z,20.37
2019-06-10T04:31:18.189Z,20.37
2019-06-10T04:33:52.257Z,20.37
2019-06-10T04:36:24.509Z,20.39
2019-06-10T04:38:54.882Z,20.55
2019-06-10T04:41:26.488Z,20.58
2019-06-10T04:43:57.972Z,21.14
2019-06-10T04:46:29.613Z,21.35
2019-06-10T04:49:02.822Z,21.10
2019-06-10T04:51:33.103Z,21.02
2019-06-10T04:54:03.873Z,20.62
2019-06-10T04:56:34.716Z,20.39
2019-06-10T04:59:05.773Z,20.38
2019-06-10T05:01:36.842Z,20.37
2019-06-10T05:04:07.939Z,20.67
2019-06-10T05:06:38.946Z,22.39
2019-06-10T05:09:12.215Z,23.00
2019-06-10T05:11:43.051Z,22.25
2019-06-10T05:14:14.177Z,22.35
2019-06-10T05:16:44.924Z,23.87
2019-06-10T05:19:15.573Z,23.16
2019-06-10T05:21:46.238Z,22.16
2019-06-10T05:24:16.990Z,22.29
2019-06-10T05:26:47.836Z,22.42
2019-06-10T05:29:20.146Z,22.33
2019-06-10T05:31:52.272Z,22.39
2019-06-10T05:34:26.459Z,22.07
2019-06-10T05:36:56.473Z,22.38
2019-06-10T05:39:28.724Z,22.34
2019-06-10T05:41:59.652Z,22.85
2019-06-10T05:44:33.134Z,23.01
2019-06-10T05:47:03.638Z,23.06
2019-06-10T05:49:36.157Z,23.34
2019-06-10T05:52:07.411Z,23.11
2019-06-10T05:54:39.227Z,23.49
2019-06-10T05:57:11.977Z,23.54
2019-06-10T05:59:43.283Z,22.83
2019-06-10T06:02:14.022Z,22.98
2019-06-10T06:04:45.817Z,23.41
2019-06-10T06:07:16.491Z,23.94
2019-06-10T06:09:47.230Z,24.47
2019-06-10T06:12:18.210Z,24.78
2019-06-10T06:14:49.217Z,25.12
2019-06-10T06:17:23.451Z,25.03
2019-06-10T06:19:53.426Z,24.84
2019-06-10T06:22:25.347Z,25.27
2019-06-10T06:24:56.571Z,25.29
2019-06-10T06:27:28.692Z,25.44
2019-06-10T06:29:59.546Z,25.44
2019-06-10T06:32:32.811Z,25.85
2019-06-10T06:35:03.010Z,25.64
2019-06-10T06:37:36.424Z,25.62
2019-06-10T06:40:08.055Z,25.78
2019-06-10T06:42:38.877Z,25.60
2019-06-10T06:45:12.213Z,25.41
2019-06-10T06:47:43.729Z,25.23
2019-06-10T06:50:15.709Z,25.10
2019-06-10T06:53:18.799Z,25.58
2019-06-10T06:55:19.322Z,26.10
2019-06-10T06:57:52.664Z,27.03
2019-06-10T07:00:43.020Z,27.78
2019-06-10T07:02:59.294Z,29.13
2019-06-10T07:05:32.729Z,28.09
2019-06-10T07:08:05.430Z,28.12
2019-06-10T07:10:37.390Z,27.33
2019-06-10T07:13:09.288Z,26.85
2019-06-10T07:15:47.070Z,27.63
2019-06-10T07:18:15.560Z,27.72
2019-06-10T07:20:47.941Z,27.67
2019-06-10T07:23:22.388Z,27.80
2019-06-10T07:25:53.206Z,27.80
2019-06-10T07:28:24.165Z,27.54
2019-06-10T07:30:55.447Z,27.81
2019-06-10T07:33:26.709Z,27.96
2019-06-10T07:35:57.473Z,27.82
2019-06-10T07:38:28.415Z,26.66
2019-06-10T07:40:59.328Z,26.61
2019-06-10T07:43:33.208Z,27.63
2019-06-10T07:46:03.963Z,27.89
2019-06-10T07:48:37.197Z,27.12
2019-06-10T07:51:10.133Z,26.70
2019-06-10T07:53:46.132Z,26.59
2019-06-10T07:56:14.876Z,27.08
2019-06-10T07:58:47.785Z,29.99
2019-06-10T08:01:19.167Z,32.75
2019-06-10T08:03:52.404Z,32.06
2019-06-10T08:06:24.998Z,30.65
2019-06-10T08:08:56.278Z,30.08
2019-06-10T08:11:27.233Z,30.20
2019-06-10T08:13:58.098Z,29.54
2019-06-10T08:16:28.793Z,30.21
2019-06-10T08:19:22.092Z,31.60
2019-06-10T08:21:32.467Z,32.17
2019-06-10T08:24:03.542Z,32.80
2019-06-10T08:26:35.365Z,33.81
2019-06-10T08:29:06.415Z,34.38
2019-06-10T08:31:37.197Z,34.55
2019-06-10T08:34:08.081Z,34.98
2019-06-10T08:36:39.952Z,34.29
2019-06-10T08:39:15.530Z,33.34
2019-06-10T08:41:48.664Z,31.98
2019-06-10T08:44:17.640Z,32.64
2019-06-10T08:46:49.485Z,30.89
2019-06-10T08:49:23.688Z,31.85
2019-06-10T08:51:53.851Z,32.74
2019-06-10T08:54:24.693Z,32.77
2019-06-10T08:56:55.609Z,32.11
2019-06-10T08:59:26.323Z,32.83
2019-06-10T09:01:58.434Z,32.59
2019-06-10T09:04:29.662Z,33.35
2019-06-10T09:07:03.301Z,34.52
2019-06-10T09:09:33.675Z,34.31
2019-06-10T09:12:04.721Z,34.76
2019-06-10T09:14:35.686Z,34.86
2019-06-10T09:17:06.416Z,35.63
2019-06-10T09:19:37.249Z,35.60
2019-06-10T09:22:08.003Z,36.02
2019-06-10T09:24:39.033Z,35.86
2019-06-10T09:27:12.981Z,35.66
2019-06-10T09:29:47.860Z,35.32
2019-06-10T09:32:16.452Z,35.63
2019-06-10T09:34:52.276Z,36.16
2019-06-10T09:37:19.677Z,36.08
2019-06-10T09:39:56.327Z,36.61
2019-06-10T09:42:23.987Z,36.20
2019-06-10T09:44:55.770Z,36.87
2019-06-10T09:47:28.308Z,36.53
2019-06-10T09:50:03.036Z,36.96
2019-06-10T09:52:32.990Z,35.79
2019-06-10T09:55:05.395Z,36.14
2019-06-10T09:57:36.369Z,35.82
2019-06-10T10:00:12.473Z,35.78
2019-06-10T10:02:47.417Z,34.80
2019-06-10T10:05:16.539Z,35.32
2019-06-10T10:07:50.716Z,35.28
2019-06-10T10:10:24.135Z,33.03
2019-06-10T10:12:55.815Z,32.27
2019-06-10T10:15:30.777Z,32.39
2019-06-10T10:17:59.174Z,32.90
2019-06-10T10:20:30.445Z,33.43
2019-06-10T10:23:02.720Z,34.31
2019-06-10T10:25:33.844Z,34.05
2019-06-10T10:28:05.605Z,33.07
2019-06-10T10:30:38.571Z,33.92
2019-06-10T10:33:09.568Z,32.72
2019-06-10T10:35:42.661Z,32.77
2019-06-10T10:38:14.429Z,32.84
2019-06-10T10:40:47.445Z,31.93
2019-06-10T10:43:28.859Z,32.08
2019-06-10T10:45:53.237Z,32.30
2019-06-10T10:48:23.591Z,32.44
2019-06-10T10:50:56.098Z,32.05
2019-06-10T10:53:26.970Z,32.00
2019-06-10T10:55:57.813Z,31.56
2019-06-10T10:58:28.620Z,31.85
2019-06-10T11:00:59.406Z,31.76
2019-06-10T11:03:30.117Z,32.10
2019-06-10T11:06:01.281Z,32.06
2019-06-10T11:08:33.488Z,31.74
2019-06-10T11:11:05.895Z,31.53
2019-06-10T11:13:37.413Z,32.13
2019-06-10T11:16:09.401Z,32.43
2019-06-10T11:18:42.425Z,33.10
2019-06-10T11:21:13.512Z,33.52
2019-06-10T11:23:44.244Z,34.28
2019-06-10T11:26:15.097Z,34.44
2019-06-10T11:28:47.455Z,33.39
2019-06-10T11:31:18.224Z,33.25
2019-06-10T11:33:48.951Z,32.79
2019-06-10T11:36:22.581Z,32.57
2019-06-10T11:38:54.943Z,34.59
2019-06-10T11:41:25.019Z,35.55
2019-06-10T11:43:59.033Z,35.26
2019-06-10T11:46:28.451Z,35.08
2019-06-10T11:49:00.063Z,36.13
2019-06-10T11:51:31.087Z,37.11
2019-06-10T11:54:03.482Z,37.16
2019-06-10T11:56:34.415Z,36.99
2019-06-10T11:59:09.443Z,37.52
2019-06-10T12:01:39.022Z,37.61
2019-06-10T12:04:12.668Z,38.38
2019-06-10T12:06:42.977Z,36.50
2019-06-10T12:09:13.997Z,37.29
2019-06-10T12:11:45.028Z,36.83
2019-06-10T12:14:15.812Z,36.62
2019-06-10T12:19:19.741Z,37.42
2019-06-10T12:21:55.658Z,38.14
2019-06-10T12:24:23.286Z,37.48
2019-06-10T12:26:58.301Z,36.92
2019-06-10T12:29:27.981Z,37.30
2019-06-10T12:32:02.824Z,37.19
2019-06-10T12:34:33.304Z,36.75
2019-06-10T12:37:11.999Z,35.66
2019-06-10T12:39:37.597Z,36.08
2019-06-10T12:42:11.077Z,35.10
2019-06-10T12:44:42.888Z,34.83
2019-06-10T12:47:14.215Z,34.57
2019-06-10T12:49:46.585Z,35.25
2019-06-10T12:52:17.693Z,34.41
2019-06-10T12:54:48.620Z,34.37
2019-06-10T12:57:22.988Z,34.28
2019-06-10T12:59:54.163Z,35.17
2019-06-10T13:02:31.170Z,35.79
2019-06-10T13:04:59.663Z,35.00
2019-06-10T13:07:32.486Z,34.85
2019-06-10T13:10:04.136Z,35.62
2019-06-10T13:12:35.198Z,35.54
2019-06-10T13:15:10.144Z,35.96
2019-06-10T13:17:44.091Z,36.30
2019-06-10T13:20:14.102Z,36.03
2019-06-10T13:22:45.020Z,36.34
2019-06-10T13:25:16.104Z,35.80
2019-06-10T13:27:47.215Z,35.97
2019-06-10T13:30:18.608Z,36.35
2019-06-10T13:32:52.701Z,36.24
2019-06-10T13:35:26.279Z,36.14
2019-06-10T13:37:57.434Z,36.73
2019-06-10T13:40:28.382Z,36.23
2019-06-10T13:42:59.835Z,35.81
2019-06-10T13:45:33.221Z,36.26
2019-06-10T13:48:07.898Z,36.15
2019-06-10T13:50:36.944Z,36.49
2019-06-10T13:53:09.765Z,36.10
2019-06-10T13:55:41.492Z,36.21
2019-06-10T13:58:14.625Z,36.23
2019-06-10T14:00:47.435Z,36.43
2019-06-10T14:03:19.690Z,36.36
2019-06-10T14:05:57.771Z,34.85
2019-06-10T14:08:24.302Z,34.37
2019-06-10T14:10:57.082Z,34.96
2019-06-10T14:13:32.373Z,35.56
2019-06-10T14:16:03.498Z,36.11
2019-06-10T14:18:35.324Z,36.17
2019-06-10T14:21:09.638Z,36.12
2019-06-10T14:23:39.305Z,36.48
2019-06-10T14:26:16.683Z,36.27
2019-06-10T14:28:46.329Z,35.56
2019-06-10T14:31:38.559Z,34.91
2019-06-10T14:33:53.255Z,35.63
2019-06-10T14:36:23.683Z,34.69
2019-06-10T14:38:54.776Z,33.98
2019-06-10T14:41:27.375Z,33.81
2019-06-10T14:43:58.542Z,34.68
2019-06-10T14:46:32.892Z,34.64
2019-06-10T14:49:04.670Z,35.19
2019-06-10T14:51:38.353Z,34.92
2019-06-10T14:54:09.432Z,35.18
2019-06-10T14:56:52.981Z,34.83
2019-06-10T15:03:34.954Z,34.40
2019-06-10T15:06:07.049Z,33.94
2019-06-10T15:08:38.415Z,34.08
2019-06-10T15:11:11.580Z,33.87
2019-06-10T15:13:43.570Z,34.29
2019-06-10T15:16:14.839Z,33.87
2019-06-10T15:18:47.253Z,33.60
2019-06-10T15:21:19.350Z,33.57
2019-06-10T15:23:52.337Z,33.40
2019-06-10T15:26:23.479Z,33.36
2019-06-10T15:28:55.385Z,33.48
2019-06-10T15:31:27.400Z,33.72
2019-06-10T15:33:58.305Z,33.75
2019-06-10T15:36:29.858Z,34.13
2019-06-10T15:39:00.815Z,34.06
2019-06-10T15:41:33.144Z,34.09
2019-06-10T15:44:04.192Z,34.30
2019-06-10T15:46:35.213Z,33.78
2019-06-10T15:49:06.264Z,33.41
2019-06-10T15:51:37.769Z,34.05
2019-06-10T15:54:08.809Z,34.29
2019-06-10T15:56:49.384Z,34.36
2019-06-10T15:59:13.849Z,33.91
2019-06-10T16:01:44.913Z,34.02
2019-06-10T16:04:17.326Z,34.32
2019-06-10T16:06:48.438Z,34.19
2019-06-10T16:09:20.309Z,33.91
2019-06-10T16:11:53.695Z,33.76
2019-06-10T16:14:25.467Z,34.18
2019-06-10T16:16:57.522Z,34.48
2019-06-10T16:19:28.872Z,34.47
2019-06-10T16:21:59.929Z,34.12
2019-06-10T16:24:33.252Z,34.11
2019-06-10T16:27:03.697Z,34.21
2019-06-10T16:29:34.719Z,33.55
2019-06-10T16:32:05.995Z,33.48
2019-06-10T16:34:37.507Z,32.97
2019-06-10T16:37:08.685Z,32.87
2019-06-10T16:39:39.892Z,32.59
2019-06-10T16:42:12.277Z,32.34
2019-06-10T16:44:43.672Z,32.24
2019-06-10T16:47:14.633Z,32.06
2019-06-10T16:49:47.197Z,31.98
2019-06-10T16:52:19.502Z,32.09
2019-06-10T16:54:52.597Z,32.05
2019-06-10T16:57:25.564Z,32.15
2019-06-10T16:59:59.165Z,32.02
2019-06-10T17:02:30.083Z,31.75
2019-06-10T17:05:03.178Z,31.63
2019-06-10T17:07:33.751Z,31.44
2019-06-10T17:10:06.970Z,31.36
2019-06-10T17:12:37.990Z,31.16
2019-06-10T17:15:13.005Z,31.08
2019-06-10T17:17:44.550Z,31.02
2019-06-10T17:20:15.588Z,30.98
2019-06-10T17:22:46.624Z,30.97
2019-06-10T17:25:19.064Z,30.91
2019-06-10T17:27:50.058Z,30.84
2019-06-10T17:30:23.948Z,30.88
2019-06-10T17:32:55.093Z,30.86
2019-06-10T17:35:28.599Z,30.73
2019-06-10T17:38:00.053Z,30.64
2019-06-10T17:40:33.604Z,30.56
2019-06-10T17:43:03.658Z,30.48
2019-06-10T17:45:35.011Z,30.36
2019-06-10T17:48:05.856Z,30.22
2019-06-10T17:50:39.348Z,30.10
2019-06-10T17:53:12.706Z,30.03
2019-06-10T17:55:43.954Z,29.94
2019-06-10T17:58:14.894Z,29.89
2019-06-10T18:00:46.012Z,29.77
2019-06-10T18:03:17.012Z,29.64
2019-06-10T18:05:48.586Z,29.49
2019-06-10T18:08:19.620Z,29.39
2019-06-10T18:10:53.280Z,29.26
2019-06-10T18:13:24.628Z,29.14
2019-06-10T18:15:55.559Z,29.05
2019-06-10T18:18:26.498Z,28.98
2019-06-10T18:20:57.793Z,28.87
2019-06-10T18:23:29.099Z,28.78
2019-06-10T18:26:00.259Z,28.65
2019-06-10T18:28:32.151Z,28.51
2019-06-10T18:31:04.110Z,28.42
2019-06-10T18:33:38.004Z,28.30
2019-06-10T18:36:12.063Z,28.21
2019-06-10T18:38:43.373Z,28.09
2019-06-10T18:41:14.404Z,28.00
2019-06-10T18:43:45.457Z,27.93
2019-06-10T18:46:17.311Z,27.83
2019-06-10T18:48:48.672Z,27.76
2019-06-10T18:51:19.768Z,27.67
2019-06-10T18:53:54.222Z,27.60
2019-06-10T18:56:25.169Z,27.49
2019-06-10T18:58:56.176Z,27.44
2019-06-10T19:01:28.251Z,27.33
2019-06-10T19:03:59.476Z,27.24
2019-06-10T19:06:33.349Z,27.20
2019-06-10T19:09:03.851Z,27.09
2019-06-10T19:11:37.227Z,27.00
2019-06-10T19:14:09.239Z,26.90
2019-06-10T19:16:40.238Z,26.84
2019-06-10T19:19:12.650Z,26.81
2019-06-10T19:21:44.405Z,26.77
2019-06-10T19:24:16.195Z,26.69
2019-06-10T19:26:47.181Z,26.65
2019-06-10T19:29:30.807Z,26.57
2019-06-10T19:31:52.597Z,26.50
2019-06-10T19:34:24.125Z,26.44
2019-06-10T19:36:55.073Z,26.29
2019-06-10T19:39:26.050Z,26.24
2019-06-10T19:41:58.305Z,26.15
2019-06-10T19:44:29.074Z,26.04
2019-06-10T19:47:02.494Z,25.95
2019-06-10T19:49:34.155Z,25.85
2019-06-10T19:52:07.284Z,25.76
2019-06-10T19:54:39.088Z,25.71
2019-06-10T19:57:12.835Z,25.66
2019-06-10T20:00:03.538Z,25.62
2019-06-10T20:02:17.975Z,25.57
2019-06-10T20:04:48.797Z,25.49
2019-06-10T20:07:22.828Z,25.36
2019-06-10T20:09:53.929Z,25.30
2019-06-10T20:12:24.705Z,25.24
2019-06-10T20:14:56.941Z,25.15
2019-06-10T20:17:28.206Z,25.08
2019-06-10T20:20:02.512Z,24.79
2019-06-10T20:22:33.871Z,24.52
2019-06-10T20:25:06.384Z,24.26
2019-06-10T20:27:37.561Z,24.00
2019-06-10T20:30:24.206Z,23.84
2019-06-10T20:32:47.848Z,23.79
2019-06-10T20:35:16.681Z,23.80
2019-06-10T20:37:48.111Z,23.80
2019-06-10T20:40:20.064Z,23.84
2019-06-10T20:42:52.771Z,23.84
2019-06-10T20:45:23.976Z,23.83
2019-06-10T20:47:55.453Z,23.79
2019-06-10T20:50:26.549Z,23.79
2019-06-10T20:53:10.983Z,23.83
2019-06-10T20:55:41.117Z,23.77
2019-06-10T20:58:07.222Z,23.42
2019-06-10T21:00:44.127Z,23.16
2019-06-10T21:03:13.356Z,23.03
2019-06-10T21:05:47.747Z,22.93
2019-06-10T21:08:19.669Z,22.80
2019-06-10T21:10:51.944Z,22.86
2019-06-10T21:13:23.733Z,22.87
2019-06-10T21:15:55.556Z,22.84
2019-06-10T21:18:27.726Z,22.78
2019-06-10T21:20:58.849Z,22.61
2019-06-10T21:23:29.786Z,22.50
2019-06-10T21:26:03.154Z,22.32
2019-06-10T21:28:34.476Z,22.21
2019-06-10T21:31:05.409Z,22.07
2019-06-10T21:33:36.373Z,21.96
2019-06-10T21:36:07.589Z,21.82
2019-06-10T21:38:38.438Z,21.87
2019-06-10T21:41:09.287Z,22.03
2019-06-10T21:43:42.527Z,22.12
2019-06-10T21:46:13.311Z,22.20
2019-06-10T21:48:46.122Z,21.99
2019-06-10T21:51:17.439Z,21.79
2019-06-10T21:53:48.668Z,21.71
2019-06-10T21:56:22.310Z,21.69
2019-06-10T21:58:54.133Z,21.65
2019-06-10T22:01:25.896Z,21.74
2019-06-10T22:04:00.637Z,21.67
2019-06-10T22:06:29.733Z,21.61
2019-06-10T22:09:04.031Z,21.57
2019-06-10T22:11:35.599Z,21.58
2019-06-10T22:14:06.597Z,21.60
2019-06-10T22:16:37.619Z,21.56
2019-06-10T22:19:08.519Z,21.51
2019-06-10T22:21:39.558Z,21.56
2019-06-10T22:24:12.436Z,21.68
2019-06-10T22:26:42.986Z,21.75
2019-06-10T22:29:13.958Z,21.83
2019-06-10T22:31:45.245Z,21.99
2019-06-10T22:34:15.989Z,22.04
2019-06-10T22:36:47.574Z,22.13
2019-06-10T22:39:18.340Z,22.07
2019-06-10T22:41:54.117Z,22.03
2019-06-10T22:44:24.616Z,22.09
2019-06-10T22:46:57.027Z,22.11
2019-06-10T22:49:28.589Z,22.03
2019-06-10T22:52:00.467Z,21.96
2019-06-10T22:54:32.412Z,21.94
2019-06-10T22:57:04.228Z,21.94
2019-06-10T22:59:36.288Z,22.00
2019-06-10T23:02:07.291Z,22.00
2019-06-10T23:04:38.258Z,21.98
2019-06-10T23:07:09.240Z,21.88
2019-06-10T23:09:42.695Z,21.90
2019-06-10T23:12:14.276Z,21.94
2019-06-10T23:14:45.717Z,22.00
2019-06-10T23:17:16.437Z,22.08
2019-06-10T23:19:49.207Z,22.12
2019-06-10T23:22:21.998Z,22.18
2019-06-10T23:24:53.578Z,22.20
2019-06-10T23:27:24.868Z,22.15
2019-06-10T23:29:57.552Z,22.08
2019-06-10T23:32:28.824Z,21.89
2019-06-10T23:35:01.092Z,21.77
2019-06-10T23:37:32.427Z,21.68
2019-06-10T23:40:04.805Z,21.55
2019-06-10T23:42:35.417Z,21.42
2019-06-10T23:45:07.504Z,21.42
2019-06-10T23:47:38.231Z,21.47
2019-06-10T23:50:09.257Z,21.51
2019-06-10T23:52:39.931Z,21.53
2019-06-10T23:55:13.095Z,21.51
2019-06-10T23:57:44.223Z,21.52
